Flight Track Log - Related Links

Times and Time Zones

All times are in EDT time to prevent confusion due to time zone crossing. See the GPD312B flight status page for this flight to view local times or setup timezone preferences in your user account.

Time Position Orientation Groundspeed Altitude Reporting Facility
EDT Latitude Longitude Course Direction KTS MPH feet Rate Location/Type
Mon 01:13:24 PM 17.9167 -63.5833 288° West 250 288 14,400  Level San Juan Center
Mon 01:15:00 PM 17.9392 -63.6569 281° West  Level Estimated
Mon 01:22:00 PM 18.0376 -63.9788 282° West  Level Estimated
Mon 01:23:00 PM 18.0655 -64.0172 307° West  Level FlightAware Approximate
Mon 01:24:00 PM 18.0934 -64.0555 307° West  Level FlightAware Approximate
Mon 01:25:00 PM 18.1213 -64.0939 307° West  Level FlightAware Approximate
Mon 01:26:00 PM 18.1329 -64.1407 270° West  Level Estimated
Mon 01:27:00 PM 18.1445 -64.1875 288° West  Level Estimated
Mon 01:28:00 PM 18.1635 -64.2315 294° West  Level FlightAware Approximate
Mon 01:29:00 PM 18.1824 -64.2756 294° West  Level FlightAware Approximate
Mon 01:30:00 PM 18.1929 -64.3227 279° West  Level Estimated
Mon 01:31:00 PM 18.2020 -64.3701 281° West  Level FlightAware Approximate
Mon 01:32:00 PM 18.2111 -64.4175 281° West  Level FlightAware Approximate
Mon 01:33:00 PM 18.2202 -64.4649 281° West  Level FlightAware Approximate
Mon 01:34:00 PM 18.2293 -64.5123 281° West  Level FlightAware Approximate
Mon 01:35:00 PM 18.2404 -64.5593 283° West  Level Estimated
Mon 01:36:00 PM 18.2504 -64.6065 283° West  Level FlightAware Approximate
Mon 01:37:00 PM 18.2604 -64.6537 283° West  Level FlightAware Approximate
Mon 01:38:00 PM 18.2717 -64.7006 298° West  Level Estimated
Mon 01:39:00 PM 18.2830 -64.7475 282° West  Level Estimated
Mon 01:40:00 PM 18.2943 -64.7944 282° West  Level Estimated
Mon 01:41:00 PM 18.3061 -64.8411 285° West  Level FlightAware Approximate

Login

Don't have an account? Register now (free) for customized features, flight alerts, and more!